createdAt,value
2022-09-06T00:02:22.367Z,3.90
2022-09-06T00:04:51.038Z,3.42
2022-09-06T00:07:19.093Z,3.70
2022-09-06T00:09:48.616Z,2.90
2022-09-06T00:12:16.672Z,3.03
2022-09-06T00:14:44.881Z,3.10
2022-09-06T00:17:13.339Z,3.03
2022-09-06T00:19:41.603Z,3.10
2022-09-06T00:22:09.748Z,2.42
2022-09-06T00:24:38.247Z,2.90
2022-09-06T00:27:09.118Z,3.03
2022-09-06T00:29:37.871Z,2.85
2022-09-06T00:32:06.109Z,2.30
2022-09-06T00:34:34.277Z,2.28
2022-09-06T00:37:02.404Z,2.85
2022-09-06T00:39:30.656Z,2.42
2022-09-06T00:41:58.851Z,2.50
2022-09-06T00:44:28.481Z,2.45
2022-09-06T00:46:57.046Z,2.40
2022-09-06T00:49:28.815Z,2.55
2022-09-06T00:52:00.178Z,2.55
2022-09-06T00:54:28.980Z,2.63
2022-09-06T00:56:58.402Z,2.33
2022-09-06T00:59:30.825Z,2.88
2022-09-06T01:01:59.628Z,2.42
2022-09-06T01:04:28.567Z,2.80
2022-09-06T01:07:06.649Z,2.55
2022-09-06T01:09:47.702Z,2.55
2022-09-06T01:12:27.448Z,2.70
2022-09-06T01:15:14.255Z,2.40
2022-09-06T01:17:53.939Z,2.60
2022-09-06T01:20:35.675Z,2.60
2022-09-06T01:23:37.794Z,2.50
2022-09-06T01:26:25.847Z,2.58
2022-09-06T01:28:56.700Z,2.47
2022-09-06T01:31:35.425Z,2.20
2022-09-06T01:34:20.781Z,2.80
2022-09-06T01:37:08.810Z,2.60
2022-09-06T01:39:39.538Z,2.90
2022-09-06T01:42:12.169Z,2.53
2022-09-06T01:44:45.434Z,2.67
2022-09-06T01:47:23.286Z,2.63
2022-09-06T01:50:06.878Z,2.47
2022-09-06T01:52:43.345Z,2.80
2022-09-06T01:55:22.300Z,2.70
2022-09-06T01:58:06.917Z,2.53
2022-09-06T02:00:41.805Z,2.60
2022-09-06T02:03:16.017Z,2.40
2022-09-06T02:05:48.764Z,2.60
2022-09-06T02:08:20.224Z,2.45
2022-09-06T02:10:55.837Z,2.22
2022-09-06T02:13:26.627Z,2.47
2022-09-06T02:16:02.388Z,2.90
2022-09-06T02:18:35.314Z,2.58
2022-09-06T02:21:05.267Z,2.60
2022-09-06T02:23:36.996Z,2.75
2022-09-06T02:26:09.384Z,2.60
2022-09-06T02:28:37.746Z,2.42
2022-09-06T02:31:12.253Z,2.95
2022-09-06T02:33:41.652Z,3.03
2022-09-06T02:36:10.903Z,3.00
2022-09-06T02:38:41.717Z,3.10
2022-09-06T02:41:11.661Z,3.08
2022-09-06T02:43:40.318Z,3.13
2022-09-06T02:46:10.173Z,2.72
2022-09-06T02:48:38.396Z,2.80
2022-09-06T02:51:07.726Z,2.80
2022-09-06T02:53:36.361Z,2.72
2022-09-06T02:56:05.147Z,3.08
2022-09-06T02:58:33.323Z,3.15
2022-09-06T03:01:01.686Z,2.95
2022-09-06T03:03:31.465Z,2.90
2022-09-06T03:05:59.747Z,2.92
2022-09-06T03:08:33.470Z,2.92
2022-09-06T03:11:02.752Z,3.53
2022-09-06T03:13:31.035Z,3.80
2022-09-06T03:16:00.941Z,3.40
2022-09-06T03:18:31.965Z,3.75
2022-09-06T03:21:00.597Z,3.50
2022-09-06T03:23:30.566Z,3.80
2022-09-06T03:25:58.715Z,3.70
2022-09-06T03:28:27.943Z,3.63
2022-09-06T03:30:56.321Z,4.47
2022-09-06T03:33:25.058Z,3.90
2022-09-06T03:35:56.456Z,4.10
2022-09-06T03:38:25.518Z,4.45
2022-09-06T03:40:54.197Z,4.15
2022-09-06T03:43:24.090Z,3.72
2022-09-06T03:45:54.186Z,4.70
2022-09-06T03:48:24.300Z,4.18
2022-09-06T03:50:55.788Z,4.18
2022-09-06T03:53:25.796Z,4.00
2022-09-06T03:55:56.171Z,4.38
2022-09-06T03:58:26.041Z,4.13
2022-09-06T04:01:05.685Z,4.20
2022-09-06T04:03:34.430Z,4.50
2022-09-06T04:06:04.884Z,4.10
2022-09-06T04:08:35.277Z,3.65
2022-09-06T04:11:03.578Z,4.30
2022-09-06T04:13:33.040Z,4.63
2022-09-06T04:16:01.680Z,4.50
2022-09-06T04:18:30.609Z,4.43
2022-09-06T04:20:59.270Z,4.28
2022-09-06T04:23:30.518Z,4.65
2022-09-06T04:26:00.494Z,3.97
2022-09-06T04:28:29.459Z,4.53
2022-09-06T04:31:03.351Z,4.55
2022-09-06T04:33:34.775Z,4.43
2022-09-06T04:36:05.228Z,4.50
2022-09-06T04:38:39.017Z,4.10
2022-09-06T04:41:08.243Z,4.75
2022-09-06T04:43:36.699Z,4.40
2022-09-06T04:46:06.746Z,4.85
2022-09-06T04:48:35.204Z,4.18
2022-09-06T04:51:03.615Z,4.55
2022-09-06T04:53:31.917Z,4.75
2022-09-06T04:56:01.649Z,4.50
2022-09-06T04:58:29.861Z,4.53
2022-09-06T05:00:58.164Z,5.10
2022-09-06T05:03:26.480Z,5.13
2022-09-06T05:06:04.405Z,4.60
2022-09-06T05:08:32.632Z,4.93
2022-09-06T05:11:02.380Z,5.22
2022-09-06T05:13:30.932Z,4.75
2022-09-06T05:16:02.079Z,4.80
2022-09-06T05:18:30.537Z,4.80
2022-09-06T05:20:59.016Z,4.40
2022-09-06T05:23:28.097Z,4.97
2022-09-06T05:25:56.399Z,5.10
2022-09-06T05:28:26.438Z,5.32
2022-09-06T05:30:54.827Z,4.90
2022-09-06T05:33:25.337Z,4.97
2022-09-06T05:35:53.521Z,5.10
2022-09-06T05:38:21.827Z,3.78
2022-09-06T05:40:50.125Z,4.05
2022-09-06T05:43:18.368Z,3.83
2022-09-06T05:45:48.074Z,3.83
2022-09-06T05:48:16.226Z,3.55
2022-09-06T05:50:44.475Z,4.40
2022-09-06T05:53:13.152Z,3.45
2022-09-06T05:55:43.178Z,3.60
2022-09-06T05:58:11.536Z,3.42
2022-09-06T06:00:40.017Z,3.92
2022-09-06T06:03:09.727Z,3.67
2022-09-06T06:05:37.873Z,4.03
2022-09-06T06:08:06.160Z,3.90
2022-09-06T06:10:38.473Z,4.50
2022-09-06T06:13:07.595Z,3.38
2022-09-06T06:15:35.898Z,3.50
2022-09-06T06:18:04.139Z,3.88
2022-09-06T06:20:33.914Z,3.78
2022-09-06T06:23:02.113Z,3.58
2022-09-06T06:25:30.943Z,3.28
2022-09-06T06:27:59.154Z,3.10
2022-09-06T06:30:27.432Z,3.25
2022-09-06T06:32:55.887Z,3.20
2022-09-06T06:35:24.113Z,3.33
2022-09-06T06:37:53.943Z,3.35
2022-09-06T06:40:22.150Z,3.45
2022-09-06T06:42:50.359Z,2.90
2022-09-06T06:45:18.758Z,3.08
2022-09-06T06:47:50.857Z,2.92
2022-09-06T06:50:19.089Z,2.92
2022-09-06T06:52:47.310Z,3.42
2022-09-06T06:55:17.109Z,3.38
2022-09-06T06:57:45.321Z,2.88
2022-09-06T07:00:14.453Z,3.08
2022-09-06T07:02:42.742Z,2.83
2022-09-06T07:07:59.386Z,3.35
2022-09-06T07:13:00.786Z,3.17
2022-09-06T07:15:33.194Z,2.67
2022-09-06T07:18:04.815Z,3.28
2022-09-06T07:26:18.507Z,3.17
2022-09-06T07:28:48.112Z,3.05
2022-09-06T07:34:05.864Z,2.88
2022-09-06T07:36:34.032Z,3.10
2022-09-06T07:39:02.551Z,3.10
2022-09-06T07:41:32.127Z,2.95
2022-09-06T07:44:00.386Z,3.03
2022-09-06T07:46:28.712Z,3.30
2022-09-06T07:48:57.109Z,3.25
2022-09-06T07:51:25.214Z,3.55
2022-09-06T07:54:12.830Z,3.45
2022-09-06T07:56:44.940Z,3.38
2022-09-06T07:59:13.124Z,3.90
2022-09-06T08:01:41.820Z,3.08
2022-09-06T08:04:12.769Z,3.17
2022-09-06T08:09:31.262Z,3.35
2022-09-06T08:12:06.495Z,3.70
2022-09-06T08:14:34.927Z,3.60
2022-09-06T08:17:03.253Z,3.75
2022-09-06T08:19:31.405Z,3.38
2022-09-06T08:21:59.416Z,2.78
2022-09-06T08:24:27.507Z,3.60
2022-09-06T08:26:55.715Z,3.88
2022-09-06T08:29:25.967Z,3.30
2022-09-06T08:31:54.381Z,2.83
2022-09-06T08:34:22.582Z,3.88
2022-09-06T08:36:50.611Z,3.38
2022-09-06T08:39:18.711Z,3.83
2022-09-06T08:41:54.134Z,3.22
2022-09-06T08:47:16.549Z,3.35
2022-09-06T08:49:46.283Z,3.40
2022-09-06T08:53:13.151Z,4.22
2022-09-06T08:55:39.911Z,3.42
2022-09-06T08:58:24.886Z,3.75
2022-09-06T09:00:58.756Z,3.70
2022-09-06T09:03:33.010Z,3.70
2022-09-06T09:06:03.506Z,4.00
2022-09-06T09:08:40.784Z,3.55
2022-09-06T09:11:12.469Z,3.85
2022-09-06T09:13:50.137Z,4.03
2022-09-06T09:16:20.162Z,3.55
2022-09-06T09:18:51.324Z,4.38
2022-09-06T09:21:24.706Z,3.72
2022-09-06T09:23:56.912Z,4.18
2022-09-06T09:26:27.423Z,4.22
2022-09-06T09:29:06.768Z,4.18
2022-09-06T09:31:38.274Z,4.00
2022-09-06T09:34:07.160Z,3.80
2022-09-06T09:36:35.331Z,3.92
2022-09-06T09:39:10.592Z,3.92
2022-09-06T09:41:41.998Z,3.75
2022-09-06T09:44:17.479Z,4.00
2022-09-06T09:46:47.134Z,3.30
2022-09-06T09:49:29.047Z,3.70
2022-09-06T09:52:08.209Z,3.63
2022-09-06T09:54:39.301Z,3.25
2022-09-06T09:57:12.070Z,3.42
2022-09-06T09:59:45.261Z,3.25
2022-09-06T10:02:25.239Z,3.40
2022-09-06T10:04:59.967Z,2.72
2022-09-06T10:07:28.665Z,3.78
2022-09-06T10:10:02.190Z,2.90
2022-09-06T10:12:32.992Z,3.47
2022-09-06T10:15:04.884Z,3.03
2022-09-06T10:17:38.432Z,3.00
2022-09-06T10:20:09.236Z,3.40
2022-09-06T10:22:50.694Z,3.25
2022-09-06T10:25:39.072Z,3.40
2022-09-06T10:28:45.988Z,3.05
2022-09-06T10:31:43.526Z,3.35
2022-09-06T10:34:44.585Z,3.55
2022-09-06T10:37:26.068Z,3.72
2022-09-06T10:39:59.152Z,3.30
2022-09-06T10:42:36.394Z,3.25
2022-09-06T10:45:29.480Z,3.50
2022-09-06T10:48:02.562Z,3.63
2022-09-06T10:50:42.604Z,3.25
2022-09-06T10:53:17.351Z,3.20
2022-09-06T10:55:50.768Z,3.08
2022-09-06T10:58:26.729Z,3.28
2022-09-06T11:00:56.768Z,3.08
2022-09-06T11:06:26.702Z,2.70
2022-09-06T11:09:03.532Z,2.85
2022-09-06T11:11:39.162Z,3.13
2022-09-06T11:14:12.867Z,2.80
2022-09-06T11:16:46.403Z,2.90
2022-09-06T11:19:19.098Z,3.13
2022-09-06T11:22:09.355Z,3.08
2022-09-06T11:24:55.123Z,2.90
2022-09-06T11:27:33.940Z,3.17
2022-09-06T11:30:04.170Z,2.85
2022-09-06T11:32:38.417Z,2.75
2022-09-06T11:35:11.110Z,2.83
2022-09-06T11:37:43.760Z,3.20
2022-09-06T11:40:28.229Z,3.25
2022-09-06T11:43:17.164Z,2.70
2022-09-06T11:45:48.980Z,3.30
2022-09-06T11:48:49.295Z,2.95
2022-09-06T11:51:37.674Z,3.42
2022-09-06T11:54:26.839Z,3.55
2022-09-06T11:56:59.582Z,2.63
2022-09-06T11:59:41.036Z,3.05
2022-09-06T12:02:39.254Z,2.55
2022-09-06T12:05:16.477Z,2.65
2022-09-06T12:08:33.479Z,2.63
2022-09-06T12:11:22.319Z,3.03
2022-09-06T12:13:56.193Z,3.25
2022-09-06T12:16:24.968Z,2.70
2022-09-06T12:19:01.447Z,3.00
2022-09-06T12:21:43.828Z,3.03
2022-09-06T12:24:52.858Z,2.45
2022-09-06T12:27:23.415Z,2.90
2022-09-06T12:29:59.335Z,2.20
2022-09-06T12:32:36.591Z,2.42
2022-09-06T12:37:57.370Z,2.70
2022-09-06T12:40:27.600Z,2.75
2022-09-06T12:42:57.539Z,2.65
2022-09-06T12:45:27.697Z,3.10
2022-09-06T12:48:08.531Z,3.00
2022-09-06T12:50:36.787Z,2.72
2022-09-06T12:53:20.418Z,2.42
2022-09-06T12:56:02.862Z,2.28
2022-09-06T12:58:32.588Z,2.45
2022-09-06T13:01:08.668Z,2.30
2022-09-06T13:03:41.797Z,2.40
2022-09-06T13:06:23.228Z,2.30
2022-09-06T13:08:57.463Z,2.45
2022-09-06T13:11:29.317Z,2.50
2022-09-06T13:13:59.055Z,2.33
2022-09-06T13:16:29.438Z,2.50
2022-09-06T13:19:12.626Z,2.55
2022-09-06T13:21:42.347Z,2.13
2022-09-06T13:24:20.671Z,2.28
2022-09-06T13:26:49.360Z,2.22
2022-09-06T13:29:26.652Z,2.35
2022-09-06T13:31:56.933Z,2.60
2022-09-06T13:34:26.532Z,2.20
2022-09-06T13:37:00.585Z,2.20
2022-09-06T13:39:33.952Z,2.30
2022-09-06T13:42:05.746Z,2.03
2022-09-06T13:44:36.381Z,1.98
2022-09-06T13:47:05.490Z,2.13
2022-09-06T13:49:34.247Z,1.92
2022-09-06T13:52:04.001Z,2.40
2022-09-06T13:54:33.453Z,2.17
2022-09-06T13:57:01.941Z,1.98
2022-09-06T13:59:30.335Z,2.00
2022-09-06T14:02:03.453Z,2.00
2022-09-06T14:04:31.945Z,1.90
2022-09-06T14:07:00.289Z,1.70
2022-09-06T14:09:28.338Z,2.28
2022-09-06T14:11:56.431Z,2.35
2022-09-06T14:14:24.688Z,1.98
2022-09-06T14:16:52.949Z,2.03
2022-09-06T14:19:22.414Z,1.70
2022-09-06T14:21:50.497Z,2.00
2022-09-06T14:24:18.595Z,1.88
2022-09-06T14:26:46.797Z,1.70
2022-09-06T14:29:14.830Z,1.60
2022-09-06T14:31:42.944Z,1.77
2022-09-06T14:34:10.990Z,1.88
2022-09-06T14:36:40.441Z,1.83
2022-09-06T14:39:08.557Z,1.65
2022-09-06T14:41:36.905Z,1.67
2022-09-06T14:44:05.022Z,1.70
2022-09-06T14:46:33.312Z,2.10
2022-09-06T14:49:03.059Z,1.30
2022-09-06T14:51:31.809Z,1.92
2022-09-06T14:54:04.192Z,1.65
2022-09-06T14:56:32.565Z,1.70
2022-09-06T14:59:00.628Z,1.95
2022-09-06T15:01:33.046Z,1.50
2022-09-06T15:04:06.634Z,1.98
2022-09-06T15:06:36.891Z,1.55
2022-09-06T15:09:07.153Z,2.25
2022-09-06T15:11:37.838Z,1.70
2022-09-06T15:14:08.127Z,2.40
2022-09-06T15:16:36.990Z,2.17
2022-09-06T15:19:05.288Z,2.08
2022-09-06T15:21:33.769Z,1.63
2022-09-06T15:24:02.570Z,1.90
2022-09-06T15:26:33.050Z,1.60
2022-09-06T15:29:01.987Z,1.98
2022-09-06T15:31:30.609Z,1.77
2022-09-06T15:33:59.182Z,2.35
2022-09-06T15:36:27.455Z,2.10
2022-09-06T15:38:59.216Z,2.00
2022-09-06T15:41:28.636Z,1.95
2022-09-06T15:43:59.780Z,2.17
2022-09-06T15:46:46.725Z,2.13
2022-09-06T15:49:17.338Z,2.50
2022-09-06T15:51:45.531Z,2.00
2022-09-06T15:54:15.706Z,2.00
2022-09-06T15:56:44.432Z,1.75
2022-09-06T15:59:14.515Z,1.80
2022-09-06T16:01:42.759Z,2.10
2022-09-06T16:04:10.910Z,2.05
2022-09-06T16:06:42.101Z,1.95
2022-09-06T16:09:14.065Z,1.80
2022-09-06T16:11:42.849Z,2.50
2022-09-06T16:14:15.368Z,2.20
2022-09-06T16:16:44.746Z,1.73
2022-09-06T16:19:14.074Z,1.95
2022-09-06T16:21:43.616Z,1.92
2022-09-06T16:24:13.794Z,2.08
2022-09-06T16:26:43.330Z,2.55
2022-09-06T16:29:14.728Z,2.10
2022-09-06T16:31:42.993Z,2.05
2022-09-06T16:34:12.251Z,2.35
2022-09-06T16:36:40.730Z,2.25
2022-09-06T16:39:09.880Z,2.03
2022-09-06T16:41:40.764Z,2.53
2022-09-06T16:44:09.854Z,2.33
2022-09-06T16:46:40.200Z,2.25
2022-09-06T16:49:08.322Z,2.42
2022-09-06T16:51:36.996Z,2.30
2022-09-06T16:54:05.217Z,2.03
2022-09-06T16:56:35.884Z,2.40
2022-09-06T16:59:06.453Z,2.25
2022-09-06T17:01:35.229Z,2.10
2022-09-06T17:04:05.728Z,2.35
2022-09-06T17:06:38.197Z,2.28
2022-09-06T17:09:06.368Z,2.05
2022-09-06T17:11:34.477Z,1.60
2022-09-06T17:14:02.545Z,2.50
2022-09-06T17:16:48.287Z,2.03
2022-09-06T17:19:17.761Z,2.00
2022-09-06T17:21:46.399Z,1.65
2022-09-06T17:24:14.638Z,1.75
2022-09-06T17:26:42.772Z,2.00
2022-09-06T17:29:11.275Z,1.77
2022-09-06T17:31:39.421Z,1.98
2022-09-06T17:34:07.879Z,2.00
2022-09-06T17:36:38.444Z,2.92
2022-09-06T17:39:08.594Z,2.28
2022-09-06T17:41:38.938Z,2.47
2022-09-06T17:44:10.464Z,1.90
2022-09-06T17:46:47.731Z,2.28
2022-09-06T17:49:20.627Z,1.75
2022-09-06T17:51:50.342Z,2.17
2022-09-06T17:54:18.721Z,2.08
2022-09-06T17:56:46.969Z,2.03
2022-09-06T17:59:15.672Z,2.10
2022-09-06T18:01:45.892Z,2.08
2022-09-06T18:04:16.006Z,1.77
2022-09-06T18:06:46.768Z,1.60
2022-09-06T18:09:17.947Z,2.25
2022-09-06T18:11:47.386Z,1.88
2022-09-06T18:14:17.683Z,2.00
2022-09-06T18:16:47.973Z,2.00
2022-09-06T18:19:17.470Z,2.30
2022-09-06T18:21:46.241Z,1.98
2022-09-06T18:24:16.469Z,1.92
2022-09-06T18:26:44.860Z,2.00
2022-09-06T18:29:15.126Z,2.35
2022-09-06T18:31:44.433Z,2.28
2022-09-06T18:34:12.892Z,3.55
2022-09-06T18:36:42.258Z,2.25
2022-09-06T18:39:11.837Z,3.30
2022-09-06T18:41:58.746Z,2.95
2022-09-06T18:44:31.882Z,2.45
2022-09-06T18:47:01.446Z,2.67
2022-09-06T18:49:30.795Z,2.47
2022-09-06T18:51:59.009Z,1.85
2022-09-06T18:54:27.094Z,2.17
2022-09-06T18:56:56.552Z,2.00
2022-09-06T18:59:24.896Z,2.28
2022-09-06T19:01:53.197Z,2.00
2022-09-06T19:04:21.349Z,2.22
2022-09-06T19:06:49.479Z,2.20
2022-09-06T19:09:18.523Z,2.22
2022-09-06T19:11:51.235Z,2.45
2022-09-06T19:14:20.762Z,2.40
2022-09-06T19:16:50.124Z,2.38
2022-09-06T19:19:18.428Z,2.22
2022-09-06T19:21:46.492Z,2.28
2022-09-06T19:24:16.218Z,2.58
2022-09-06T19:26:45.159Z,2.28
2022-09-06T19:29:15.764Z,2.40
2022-09-06T19:31:46.059Z,2.38
2022-09-06T19:34:15.679Z,2.33
2022-09-06T19:36:44.991Z,2.50
2022-09-06T19:39:15.642Z,2.00
2022-09-06T19:41:46.971Z,2.70
2022-09-06T19:44:16.418Z,2.70
2022-09-06T19:46:47.301Z,2.47
2022-09-06T19:49:16.844Z,2.25
2022-09-06T19:51:46.412Z,2.47
2022-09-06T19:54:15.577Z,2.45
2022-09-06T19:56:44.267Z,2.30
2022-09-06T19:59:13.279Z,2.85
2022-09-06T20:01:43.348Z,4.35
2022-09-06T20:04:14.308Z,3.35
2022-09-06T20:06:42.702Z,2.40
2022-09-06T20:09:11.845Z,2.58
2022-09-06T20:11:40.966Z,2.35
2022-09-06T20:14:09.706Z,2.75
2022-09-06T20:16:41.509Z,2.30
2022-09-06T20:19:12.949Z,2.55
2022-09-06T20:21:41.069Z,2.17
2022-09-06T20:24:09.534Z,2.50
2022-09-06T20:26:38.013Z,2.50
2022-09-06T20:29:06.620Z,2.60
2022-09-06T20:31:36.823Z,2.80
2022-09-06T20:34:06.580Z,2.65
2022-09-06T20:36:36.111Z,2.83
2022-09-06T20:39:04.421Z,3.15
2022-09-06T20:41:33.815Z,3.20
2022-09-06T20:44:02.527Z,3.15
2022-09-06T20:46:33.971Z,3.13
2022-09-06T20:49:04.658Z,3.08
2022-09-06T20:51:36.247Z,2.75
2022-09-06T20:54:06.182Z,2.83
2022-09-06T20:56:36.170Z,2.10
2022-09-06T20:59:06.644Z,1.88
2022-09-06T21:01:38.234Z,1.85
2022-09-06T21:04:08.330Z,2.10
2022-09-06T21:06:39.506Z,2.83
2022-09-06T21:09:10.314Z,2.08
2022-09-06T21:11:39.102Z,2.40
2022-09-06T21:14:09.354Z,3.15
2022-09-06T21:16:38.541Z,2.97
2022-09-06T21:19:08.960Z,2.70
2022-09-06T21:21:39.253Z,2.25
2022-09-06T21:24:08.566Z,3.15
2022-09-06T21:26:36.797Z,2.88
2022-09-06T21:29:05.992Z,3.13
2022-09-06T21:31:37.029Z,3.17
2022-09-06T21:34:07.347Z,1.90
2022-09-06T21:36:39.124Z,2.10
2022-09-06T21:39:09.613Z,1.92
2022-09-06T21:41:39.545Z,1.58
2022-09-06T21:44:08.457Z,1.38
2022-09-06T21:46:38.538Z,1.15
2022-09-06T21:49:08.635Z,1.40
2022-09-06T21:51:38.659Z,1.60
2022-09-06T21:54:07.291Z,1.50
2022-09-06T21:56:36.916Z,1.60
2022-09-06T21:59:06.080Z,1.00
2022-09-06T22:01:36.012Z,1.10
2022-09-06T22:04:04.658Z,1.58
2022-09-06T22:06:34.318Z,1.15
2022-09-06T22:09:07.675Z,1.08
2022-09-06T22:11:38.620Z,1.20
2022-09-06T22:14:09.141Z,1.40
2022-09-06T22:16:39.594Z,1.20
2022-09-06T22:19:09.626Z,1.70
2022-09-06T22:21:38.625Z,1.75
2022-09-06T22:24:10.691Z,1.70
2022-09-06T22:26:40.308Z,1.58
2022-09-06T22:29:10.797Z,1.60
2022-09-06T22:31:39.481Z,1.40
2022-09-06T22:34:08.142Z,1.70
2022-09-06T22:36:36.529Z,2.13
2022-09-06T22:39:05.035Z,2.20
2022-09-06T22:41:35.076Z,2.40
2022-09-06T22:44:04.302Z,2.17
2022-09-06T22:46:33.238Z,2.25
2022-09-06T22:49:02.260Z,2.22
2022-09-06T22:51:30.483Z,2.38
2022-09-06T22:53:58.492Z,2.65
2022-09-06T22:56:26.708Z,2.75
2022-09-06T22:58:56.222Z,3.00
2022-09-06T23:01:24.440Z,3.03
2022-09-06T23:03:52.578Z,2.92
2022-09-06T23:06:21.683Z,3.10
2022-09-06T23:08:49.789Z,2.95
2022-09-06T23:11:19.273Z,3.20
2022-09-06T23:13:47.387Z,3.08
2022-09-06T23:16:18.962Z,3.55
2022-09-06T23:18:47.785Z,3.03
2022-09-06T23:21:18.025Z,3.50
2022-09-06T23:23:47.028Z,3.08
2022-09-06T23:26:17.016Z,3.33
2022-09-06T23:28:45.463Z,3.28
2022-09-06T23:31:17.050Z,3.03
2022-09-06T23:33:45.336Z,3.25
2022-09-06T23:36:14.777Z,3.80
2022-09-06T23:38:43.599Z,3.60
2022-09-06T23:41:12.281Z,3.30
2022-09-06T23:43:42.129Z,3.83
2022-09-06T23:46:11.870Z,3.67
2022-09-06T23:48:41.423Z,3.72
2022-09-06T23:51:10.223Z,4.47
2022-09-06T23:53:38.549Z,4.30
2022-09-06T23:56:07.331Z,4.72
2022-09-06T23:58:36.142Z,4.40
